sensor_id;sensor_type;location;lat;lon;timestamp;P1;durP1;ratioP1;P2;durP2;ratioP2
18997;SDS011;9632;51.018;4.284;2022-10-16T00:00:32;1.92;;;0.60;;
18997;SDS011;9632;51.018;4.284;2022-10-16T00:03:02;3.03;;;0.65;;
18997;SDS011;9632;51.018;4.284;2022-10-16T00:05:29;2.03;;;0.75;;
18997;SDS011;9632;51.018;4.284;2022-10-16T00:07:55;1.88;;;1.10;;
18997;SDS011;9632;51.018;4.284;2022-10-16T00:10:21;1.17;;;0.73;;
18997;SDS011;9632;51.018;4.284;2022-10-16T00:12:47;0.98;;;0.63;;
18997;SDS011;9632;51.018;4.284;2022-10-16T00:15:12;1.33;;;0.70;;
18997;SDS011;9632;51.018;4.284;2022-10-16T00:17:38;2.95;;;0.60;;
18997;SDS011;9632;51.018;4.284;2022-10-16T00:20:04;3.33;;;0.88;;
18997;SDS011;9632;51.018;4.284;2022-10-16T00:22:30;0.90;;;0.50;;
18997;SDS011;9632;51.018;4.284;2022-10-16T00:24:56;2.10;;;0.80;;
18997;SDS011;9632;51.018;4.284;2022-10-16T00:27:21;3.08;;;1.00;;
18997;SDS011;9632;51.018;4.284;2022-10-16T00:29:51;1.92;;;0.80;;
18997;SDS011;9632;51.018;4.284;2022-10-16T00:32:17;1.92;;;0.75;;
18997;SDS011;9632;51.018;4.284;2022-10-16T00:34:44;1.38;;;0.65;;
18997;SDS011;9632;51.018;4.284;2022-10-16T00:37:10;2.42;;;0.50;;
18997;SDS011;9632;51.018;4.284;2022-10-16T00:39:36;0.95;;;0.63;;
18997;SDS011;9632;51.018;4.284;2022-10-16T00:42:01;1.58;;;0.70;;
18997;SDS011;9632;51.018;4.284;2022-10-16T00:47:30;0.93;;;0.60;;
18997;SDS011;9632;51.018;4.284;2022-10-16T00:50:02;4.07;;;0.70;;
18997;SDS011;9632;51.018;4.284;2022-10-16T00:52:34;2.75;;;0.73;;
18997;SDS011;9632;51.018;4.284;2022-10-16T00:55:02;0.90;;;0.73;;
18997;SDS011;9632;51.018;4.284;2022-10-16T00:57:29;3.85;;;0.73;;
18997;SDS011;9632;51.018;4.284;2022-10-16T00:59:55;1.50;;;0.68;;
18997;SDS011;9632;51.018;4.284;2022-10-16T01:02:21;1.58;;;0.85;;
18997;SDS011;9632;51.018;4.284;2022-10-16T01:04:48;1.33;;;0.75;;
18997;SDS011;9632;51.018;4.284;2022-10-16T01:07:24;1.88;;;0.70;;
18997;SDS011;9632;51.018;4.284;2022-10-16T01:12:53;2.63;;;1.08;;
18997;SDS011;9632;51.018;4.284;2022-10-16T01:15:31;1.25;;;0.80;;
18997;SDS011;9632;51.018;4.284;2022-10-16T01:18:23;2.10;;;0.60;;
18997;SDS011;9632;51.018;4.284;2022-10-16T01:21:05;2.83;;;0.80;;
18997;SDS011;9632;51.018;4.284;2022-10-16T01:24:15;3.58;;;0.80;;
18997;SDS011;9632;51.018;4.284;2022-10-16T01:29:49;5.68;;;0.90;;
18997;SDS011;9632;51.018;4.284;2022-10-16T01:32:34;1.88;;;0.70;;
18997;SDS011;9632;51.018;4.284;2022-10-16T01:35:06;1.75;;;1.00;;
18997;SDS011;9632;51.018;4.284;2022-10-16T01:37:53;1.60;;;0.80;;
18997;SDS011;9632;51.018;4.284;2022-10-16T01:40:34;1.83;;;1.08;;
18997;SDS011;9632;51.018;4.284;2022-10-16T01:43:04;1.75;;;0.80;;
18997;SDS011;9632;51.018;4.284;2022-10-16T01:45:41;1.67;;;0.80;;
18997;SDS011;9632;51.018;4.284;2022-10-16T01:48:09;4.20;;;1.13;;
18997;SDS011;9632;51.018;4.284;2022-10-16T01:50:39;2.90;;;1.10;;
18997;SDS011;9632;51.018;4.284;2022-10-16T01:53:08;3.30;;;0.90;;
18997;SDS011;9632;51.018;4.284;2022-10-16T01:55:37;3.28;;;1.00;;
18997;SDS011;9632;51.018;4.284;2022-10-16T01:58:09;7.70;;;0.90;;
18997;SDS011;9632;51.018;4.284;2022-10-16T02:00:37;3.42;;;0.90;;
18997;SDS011;9632;51.018;4.284;2022-10-16T02:03:05;3.50;;;1.20;;
18997;SDS011;9632;51.018;4.284;2022-10-16T02:05:34;3.78;;;1.05;;
18997;SDS011;9632;51.018;4.284;2022-10-16T02:08:03;7.03;;;1.27;;
18997;SDS011;9632;51.018;4.284;2022-10-16T02:10:29;3.55;;;1.10;;
18997;SDS011;9632;51.018;4.284;2022-10-16T02:13:03;4.90;;;1.20;;
18997;SDS011;9632;51.018;4.284;2022-10-16T02:15:30;4.13;;;1.25;;
18997;SDS011;9632;51.018;4.284;2022-10-16T02:17:56;8.10;;;1.33;;
18997;SDS011;9632;51.018;4.284;2022-10-16T02:20:23;2.30;;;0.90;;
18997;SDS011;9632;51.018;4.284;2022-10-16T02:22:55;2.42;;;1.10;;
18997;SDS011;9632;51.018;4.284;2022-10-16T02:25:32;1.48;;;1.00;;
18997;SDS011;9632;51.018;4.284;2022-10-16T02:28:24;3.08;;;0.90;;
18997;SDS011;9632;51.018;4.284;2022-10-16T02:30:56;4.22;;;0.93;;
18997;SDS011;9632;51.018;4.284;2022-10-16T02:33:24;2.50;;;1.02;;
18997;SDS011;9632;51.018;4.284;2022-10-16T02:35:51;2.63;;;1.05;;
18997;SDS011;9632;51.018;4.284;2022-10-16T02:38:19;2.78;;;1.15;;
18997;SDS011;9632;51.018;4.284;2022-10-16T02:40:46;1.90;;;0.90;;
18997;SDS011;9632;51.018;4.284;2022-10-16T02:43:12;5.30;;;1.00;;
18997;SDS011;9632;51.018;4.284;2022-10-16T02:45:38;3.33;;;1.35;;
18997;SDS011;9632;51.018;4.284;2022-10-16T02:48:04;2.58;;;1.05;;
18997;SDS011;9632;51.018;4.284;2022-10-16T02:50:30;2.08;;;1.10;;
18997;SDS011;9632;51.018;4.284;2022-10-16T02:52:56;2.35;;;0.95;;
18997;SDS011;9632;51.018;4.284;2022-10-16T02:55:21;1.02;;;0.90;;
18997;SDS011;9632;51.018;4.284;2022-10-16T02:57:47;3.85;;;1.20;;
18997;SDS011;9632;51.018;4.284;2022-10-16T03:00:13;3.72;;;1.20;;
18997;SDS011;9632;51.018;4.284;2022-10-16T03:02:41;3.30;;;1.20;;
18997;SDS011;9632;51.018;4.284;2022-10-16T03:05:07;4.07;;;1.38;;
18997;SDS011;9632;51.018;4.284;2022-10-16T03:07:33;3.40;;;1.45;;
18997;SDS011;9632;51.018;4.284;2022-10-16T03:09:59;2.75;;;1.23;;
18997;SDS011;9632;51.018;4.284;2022-10-16T03:12:25;2.60;;;1.00;;
18997;SDS011;9632;51.018;4.284;2022-10-16T03:14:52;4.50;;;1.45;;
18997;SDS011;9632;51.018;4.284;2022-10-16T03:17:18;3.05;;;1.13;;
18997;SDS011;9632;51.018;4.284;2022-10-16T03:19:43;3.65;;;1.13;;
18997;SDS011;9632;51.018;4.284;2022-10-16T03:22:09;3.92;;;1.05;;
18997;SDS011;9632;51.018;4.284;2022-10-16T03:24:34;3.53;;;1.20;;
18997;SDS011;9632;51.018;4.284;2022-10-16T03:27:00;4.43;;;1.10;;
18997;SDS011;9632;51.018;4.284;2022-10-16T03:29:26;2.13;;;1.30;;
18997;SDS011;9632;51.018;4.284;2022-10-16T03:31:52;3.95;;;1.48;;
18997;SDS011;9632;51.018;4.284;2022-10-16T03:34:18;6.22;;;1.30;;
18997;SDS011;9632;51.018;4.284;2022-10-16T03:36:43;4.68;;;1.45;;
18997;SDS011;9632;51.018;4.284;2022-10-16T03:39:09;5.05;;;1.38;;
18997;SDS011;9632;51.018;4.284;2022-10-16T03:41:35;3.10;;;1.30;;
18997;SDS011;9632;51.018;4.284;2022-10-16T03:44:00;5.05;;;1.40;;
18997;SDS011;9632;51.018;4.284;2022-10-16T03:46:26;6.05;;;1.50;;
18997;SDS011;9632;51.018;4.284;2022-10-16T03:48:52;4.00;;;1.35;;
18997;SDS011;9632;51.018;4.284;2022-10-16T03:51:17;5.43;;;1.70;;
18997;SDS011;9632;51.018;4.284;2022-10-16T03:53:43;4.90;;;1.40;;
18997;SDS011;9632;51.018;4.284;2022-10-16T03:56:08;2.88;;;1.50;;
18997;SDS011;9632;51.018;4.284;2022-10-16T03:58:34;4.53;;;1.48;;
18997;SDS011;9632;51.018;4.284;2022-10-16T04:01:00;3.15;;;1.50;;
18997;SDS011;9632;51.018;4.284;2022-10-16T04:03:25;4.32;;;1.70;;
18997;SDS011;9632;51.018;4.284;2022-10-16T04:05:51;3.85;;;1.52;;
18997;SDS011;9632;51.018;4.284;2022-10-16T04:08:17;2.70;;;1.50;;
18997;SDS011;9632;51.018;4.284;2022-10-16T04:10:43;2.75;;;1.40;;
18997;SDS011;9632;51.018;4.284;2022-10-16T04:13:09;3.72;;;1.55;;
18997;SDS011;9632;51.018;4.284;2022-10-16T04:15:35;2.95;;;1.40;;
18997;SDS011;9632;51.018;4.284;2022-10-16T04:18:00;2.65;;;1.15;;
18997;SDS011;9632;51.018;4.284;2022-10-16T04:20:26;3.28;;;1.30;;
18997;SDS011;9632;51.018;4.284;2022-10-16T04:22:52;7.20;;;1.70;;
18997;SDS011;9632;51.018;4.284;2022-10-16T04:25:18;6.63;;;1.50;;
18997;SDS011;9632;51.018;4.284;2022-10-16T04:27:43;3.25;;;1.52;;
18997;SDS011;9632;51.018;4.284;2022-10-16T04:30:09;3.42;;;1.48;;
18997;SDS011;9632;51.018;4.284;2022-10-16T04:32:35;4.05;;;1.48;;
18997;SDS011;9632;51.018;4.284;2022-10-16T04:35:00;3.25;;;1.38;;
18997;SDS011;9632;51.018;4.284;2022-10-16T04:37:26;2.10;;;1.08;;
18997;SDS011;9632;51.018;4.284;2022-10-16T04:39:53;4.72;;;1.73;;
18997;SDS011;9632;51.018;4.284;2022-10-16T04:42:19;6.95;;;1.77;;
18997;SDS011;9632;51.018;4.284;2022-10-16T04:44:45;4.32;;;1.50;;
18997;SDS011;9632;51.018;4.284;2022-10-16T04:47:11;5.18;;;1.48;;
18997;SDS011;9632;51.018;4.284;2022-10-16T04:49:36;2.05;;;1.30;;
18997;SDS011;9632;51.018;4.284;2022-10-16T04:52:02;4.70;;;1.55;;
18997;SDS011;9632;51.018;4.284;2022-10-16T04:54:28;5.32;;;1.67;;
18997;SDS011;9632;51.018;4.284;2022-10-16T04:56:54;4.45;;;1.20;;
18997;SDS011;9632;51.018;4.284;2022-10-16T04:59:20;3.53;;;1.38;;
18997;SDS011;9632;51.018;4.284;2022-10-16T05:01:46;4.28;;;1.77;;
18997;SDS011;9632;51.018;4.284;2022-10-16T05:04:11;2.67;;;1.33;;
18997;SDS011;9632;51.018;4.284;2022-10-16T05:06:37;2.33;;;1.38;;
18997;SDS011;9632;51.018;4.284;2022-10-16T05:09:04;4.88;;;1.20;;
18997;SDS011;9632;51.018;4.284;2022-10-16T05:11:30;4.45;;;1.10;;
18997;SDS011;9632;51.018;4.284;2022-10-16T05:13:56;5.03;;;1.35;;
18997;SDS011;9632;51.018;4.284;2022-10-16T05:16:22;5.18;;;1.30;;
18997;SDS011;9632;51.018;4.284;2022-10-16T05:18:48;4.28;;;1.13;;
18997;SDS011;9632;51.018;4.284;2022-10-16T05:21:13;3.92;;;1.35;;
18997;SDS011;9632;51.018;4.284;2022-10-16T05:23:39;5.47;;;1.40;;
18997;SDS011;9632;51.018;4.284;2022-10-16T05:26:05;3.75;;;1.33;;
18997;SDS011;9632;51.018;4.284;2022-10-16T05:28:30;5.13;;;1.48;;
18997;SDS011;9632;51.018;4.284;2022-10-16T05:30:56;4.47;;;1.20;;
18997;SDS011;9632;51.018;4.284;2022-10-16T05:33:23;4.88;;;1.40;;
18997;SDS011;9632;51.018;4.284;2022-10-16T05:35:50;3.33;;;1.25;;
18997;SDS011;9632;51.018;4.284;2022-10-16T05:38:17;5.68;;;1.38;;
18997;SDS011;9632;51.018;4.284;2022-10-16T05:40:43;3.92;;;1.60;;
18997;SDS011;9632;51.018;4.284;2022-10-16T05:43:15;5.65;;;1.50;;
18997;SDS011;9632;51.018;4.284;2022-10-16T05:45:40;6.70;;;1.73;;
18997;SDS011;9632;51.018;4.284;2022-10-16T05:48:06;6.07;;;1.50;;
18997;SDS011;9632;51.018;4.284;2022-10-16T05:50:32;10.02;;;1.75;;
18997;SDS011;9632;51.018;4.284;2022-10-16T05:52:57;4.80;;;1.52;;
18997;SDS011;9632;51.018;4.284;2022-10-16T05:55:23;3.00;;;1.25;;
18997;SDS011;9632;51.018;4.284;2022-10-16T05:57:48;2.78;;;1.23;;
18997;SDS011;9632;51.018;4.284;2022-10-16T06:00:14;6.22;;;1.63;;
18997;SDS011;9632;51.018;4.284;2022-10-16T06:02:40;3.63;;;1.48;;
18997;SDS011;9632;51.018;4.284;2022-10-16T06:05:05;2.65;;;1.10;;
18997;SDS011;9632;51.018;4.284;2022-10-16T06:07:33;6.65;;;1.63;;
18997;SDS011;9632;51.018;4.284;2022-10-16T06:10:00;4.97;;;1.55;;
18997;SDS011;9632;51.018;4.284;2022-10-16T06:12:26;6.35;;;1.73;;
18997;SDS011;9632;51.018;4.284;2022-10-16T06:14:52;7.55;;;1.50;;
18997;SDS011;9632;51.018;4.284;2022-10-16T06:17:18;5.75;;;1.50;;
18997;SDS011;9632;51.018;4.284;2022-10-16T06:19:43;3.25;;;1.48;;
18997;SDS011;9632;51.018;4.284;2022-10-16T06:22:09;4.95;;;1.60;;
18997;SDS011;9632;51.018;4.284;2022-10-16T06:24:35;3.22;;;1.30;;
18997;SDS011;9632;51.018;4.284;2022-10-16T06:27:00;3.00;;;1.38;;
18997;SDS011;9632;51.018;4.284;2022-10-16T06:29:27;6.32;;;1.50;;
18997;SDS011;9632;51.018;4.284;2022-10-16T06:31:53;13.07;;;1.70;;
18997;SDS011;9632;51.018;4.284;2022-10-16T06:34:18;6.45;;;1.65;;
18997;SDS011;9632;51.018;4.284;2022-10-16T06:36:44;3.80;;;1.50;;
18997;SDS011;9632;51.018;4.284;2022-10-16T06:39:09;5.35;;;1.60;;
18997;SDS011;9632;51.018;4.284;2022-10-16T06:41:35;5.68;;;1.48;;
18997;SDS011;9632;51.018;4.284;2022-10-16T06:44:01;4.85;;;1.50;;
18997;SDS011;9632;51.018;4.284;2022-10-16T06:46:30;4.35;;;1.50;;
18997;SDS011;9632;51.018;4.284;2022-10-16T06:48:56;4.25;;;1.63;;
18997;SDS011;9632;51.018;4.284;2022-10-16T06:51:22;3.72;;;1.65;;
18997;SDS011;9632;51.018;4.284;2022-10-16T06:53:50;5.03;;;1.60;;
18997;SDS011;9632;51.018;4.284;2022-10-16T06:56:18;3.30;;;1.23;;
18997;SDS011;9632;51.018;4.284;2022-10-16T06:58:46;5.10;;;1.27;;
18997;SDS011;9632;51.018;4.284;2022-10-16T07:01:12;3.90;;;1.40;;
18997;SDS011;9632;51.018;4.284;2022-10-16T07:03:40;4.93;;;1.55;;
18997;SDS011;9632;51.018;4.284;2022-10-16T07:06:07;5.22;;;1.40;;
18997;SDS011;9632;51.018;4.284;2022-10-16T07:08:37;3.45;;;1.30;;
18997;SDS011;9632;51.018;4.284;2022-10-16T07:11:05;7.20;;;1.80;;
18997;SDS011;9632;51.018;4.284;2022-10-16T07:13:36;5.18;;;1.50;;
18997;SDS011;9632;51.018;4.284;2022-10-16T07:16:11;6.55;;;1.75;;
18997;SDS011;9632;51.018;4.284;2022-10-16T07:18:41;6.57;;;1.70;;
18997;SDS011;9632;51.018;4.284;2022-10-16T07:21:11;5.15;;;1.55;;
18997;SDS011;9632;51.018;4.284;2022-10-16T07:23:38;4.72;;;1.85;;
18997;SDS011;9632;51.018;4.284;2022-10-16T07:26:04;5.20;;;2.05;;
18997;SDS011;9632;51.018;4.284;2022-10-16T07:28:30;5.60;;;2.47;;
18997;SDS011;9632;51.018;4.284;2022-10-16T07:31:07;6.43;;;2.90;;
18997;SDS011;9632;51.018;4.284;2022-10-16T07:33:35;6.35;;;1.88;;
18997;SDS011;9632;51.018;4.284;2022-10-16T07:36:02;4.68;;;1.60;;
18997;SDS011;9632;51.018;4.284;2022-10-16T07:38:27;4.43;;;1.60;;
18997;SDS011;9632;51.018;4.284;2022-10-16T07:40:57;4.22;;;1.45;;
18997;SDS011;9632;51.018;4.284;2022-10-16T07:43:24;4.13;;;1.40;;
18997;SDS011;9632;51.018;4.284;2022-10-16T07:45:50;3.67;;;1.40;;
18997;SDS011;9632;51.018;4.284;2022-10-16T07:48:16;4.50;;;1.75;;
18997;SDS011;9632;51.018;4.284;2022-10-16T07:50:42;4.55;;;1.40;;
18997;SDS011;9632;51.018;4.284;2022-10-16T07:53:09;5.72;;;1.33;;
18997;SDS011;9632;51.018;4.284;2022-10-16T07:55:35;5.70;;;1.67;;
18997;SDS011;9632;51.018;4.284;2022-10-16T07:58:01;4.32;;;1.05;;
18997;SDS011;9632;51.018;4.284;2022-10-16T08:00:27;7.75;;;1.38;;
18997;SDS011;9632;51.018;4.284;2022-10-16T08:02:52;5.40;;;1.20;;
18997;SDS011;9632;51.018;4.284;2022-10-16T08:05:18;4.20;;;1.35;;
18997;SDS011;9632;51.018;4.284;2022-10-16T08:07:48;4.22;;;1.30;;
18997;SDS011;9632;51.018;4.284;2022-10-16T08:10:15;5.45;;;1.40;;
18997;SDS011;9632;51.018;4.284;2022-10-16T08:12:43;7.47;;;1.45;;
18997;SDS011;9632;51.018;4.284;2022-10-16T08:15:08;5.93;;;1.50;;
18997;SDS011;9632;51.018;4.284;2022-10-16T08:17:34;6.68;;;1.50;;
18997;SDS011;9632;51.018;4.284;2022-10-16T08:20:00;6.10;;;1.55;;
18997;SDS011;9632;51.018;4.284;2022-10-16T08:22:26;4.05;;;1.25;;
18997;SDS011;9632;51.018;4.284;2022-10-16T08:24:52;6.45;;;1.20;;
18997;SDS011;9632;51.018;4.284;2022-10-16T08:27:18;3.38;;;1.13;;
18997;SDS011;9632;51.018;4.284;2022-10-16T08:29:43;4.03;;;1.13;;
18997;SDS011;9632;51.018;4.284;2022-10-16T08:32:09;4.95;;;1.45;;
18997;SDS011;9632;51.018;4.284;2022-10-16T08:34:34;3.13;;;1.05;;
18997;SDS011;9632;51.018;4.284;2022-10-16T08:37:00;5.28;;;1.42;;
18997;SDS011;9632;51.018;4.284;2022-10-16T08:39:26;10.65;;;1.30;;
18997;SDS011;9632;51.018;4.284;2022-10-16T08:44:52;6.45;;;1.00;;
18997;SDS011;9632;51.018;4.284;2022-10-16T08:47:45;5.55;;;1.00;;
18997;SDS011;9632;51.018;4.284;2022-10-16T08:50:21;7.28;;;1.30;;
18997;SDS011;9632;51.018;4.284;2022-10-16T08:52:53;7.30;;;1.20;;
18997;SDS011;9632;51.018;4.284;2022-10-16T08:55:28;8.68;;;1.45;;
18997;SDS011;9632;51.018;4.284;2022-10-16T08:58:15;5.07;;;0.98;;
18997;SDS011;9632;51.018;4.284;2022-10-16T09:00:42;2.25;;;0.80;;
18997;SDS011;9632;51.018;4.284;2022-10-16T09:08:39;4.50;;;1.00;;
18997;SDS011;9632;51.018;4.284;2022-10-16T09:11:32;3.88;;;0.98;;
18997;SDS011;9632;51.018;4.284;2022-10-16T09:17:10;2.70;;;0.60;;
18997;SDS011;9632;51.018;4.284;2022-10-16T09:20:18;6.40;;;1.15;;
18997;SDS011;9632;51.018;4.284;2022-10-16T09:25:41;5.05;;;0.95;;
18997;SDS011;9632;51.018;4.284;2022-10-16T09:28:09;5.38;;;1.10;;
18997;SDS011;9632;51.018;4.284;2022-10-16T09:30:35;4.90;;;0.88;;
18997;SDS011;9632;51.018;4.284;2022-10-16T09:33:02;5.10;;;1.20;;
18997;SDS011;9632;51.018;4.284;2022-10-16T09:35:36;6.07;;;0.98;;
18997;SDS011;9632;51.018;4.284;2022-10-16T09:38:04;5.05;;;1.17;;
18997;SDS011;9632;51.018;4.284;2022-10-16T09:40:31;9.68;;;1.10;;
18997;SDS011;9632;51.018;4.284;2022-10-16T09:43:14;7.30;;;1.30;;
18997;SDS011;9632;51.018;4.284;2022-10-16T09:45:55;6.10;;;1.10;;
18997;SDS011;9632;51.018;4.284;2022-10-16T09:48:23;7.13;;;1.08;;
18997;SDS011;9632;51.018;4.284;2022-10-16T09:50:57;4.03;;;0.98;;
18997;SDS011;9632;51.018;4.284;2022-10-16T09:53:25;4.28;;;0.85;;
18997;SDS011;9632;51.018;4.284;2022-10-16T09:56:03;4.68;;;1.00;;
18997;SDS011;9632;51.018;4.284;2022-10-16T09:58:31;5.47;;;1.05;;
18997;SDS011;9632;51.018;4.284;2022-10-16T10:00:58;7.18;;;1.00;;
18997;SDS011;9632;51.018;4.284;2022-10-16T10:03:45;3.58;;;0.75;;
18997;SDS011;9632;51.018;4.284;2022-10-16T10:06:24;11.10;;;1.27;;
18997;SDS011;9632;51.018;4.284;2022-10-16T10:14:17;7.68;;;1.08;;
18997;SDS011;9632;51.018;4.284;2022-10-16T10:17:02;3.72;;;1.00;;
18997;SDS011;9632;51.018;4.284;2022-10-16T10:19:37;5.80;;;1.02;;
18997;SDS011;9632;51.018;4.284;2022-10-16T10:22:28;5.85;;;1.02;;
18997;SDS011;9632;51.018;4.284;2022-10-16T10:24:56;3.92;;;0.98;;
18997;SDS011;9632;51.018;4.284;2022-10-16T10:27:24;4.82;;;1.02;;
18997;SDS011;9632;51.018;4.284;2022-10-16T10:30:10;7.53;;;1.20;;
18997;SDS011;9632;51.018;4.284;2022-10-16T10:35:24;9.13;;;2.00;;
18997;SDS011;9632;51.018;4.284;2022-10-16T10:40:51;7.47;;;1.05;;
18997;SDS011;9632;51.018;4.284;2022-10-16T10:46:10;6.30;;;0.90;;
18997;SDS011;9632;51.018;4.284;2022-10-16T10:51:39;5.05;;;1.00;;
18997;SDS011;9632;51.018;4.284;2022-10-16T10:57:21;9.68;;;0.90;;
18997;SDS011;9632;51.018;4.284;2022-10-16T11:05:50;3.60;;;0.93;;
18997;SDS011;9632;51.018;4.284;2022-10-16T11:08:35;4.88;;;1.00;;
18997;SDS011;9632;51.018;4.284;2022-10-16T11:14:36;5.10;;;0.80;;
18997;SDS011;9632;51.018;4.284;2022-10-16T11:17:08;4.10;;;0.60;;
18997;SDS011;9632;51.018;4.284;2022-10-16T11:22:35;4.53;;;0.98;;
18997;SDS011;9632;51.018;4.284;2022-10-16T11:25:18;4.50;;;0.90;;
18997;SDS011;9632;51.018;4.284;2022-10-16T11:31:08;4.22;;;0.90;;
18997;SDS011;9632;51.018;4.284;2022-10-16T11:36:42;6.05;;;0.85;;
18997;SDS011;9632;51.018;4.284;2022-10-16T11:39:26;7.25;;;0.70;;
18997;SDS011;9632;51.018;4.284;2022-10-16T11:53:44;5.00;;;0.88;;
18997;SDS011;9632;51.018;4.284;2022-10-16T11:56:16;4.05;;;0.80;;
18997;SDS011;9632;51.018;4.284;2022-10-16T11:58:54;3.97;;;0.65;;
18997;SDS011;9632;51.018;4.284;2022-10-16T12:01:30;5.22;;;0.82;;
18997;SDS011;9632;51.018;4.284;2022-10-16T12:04:26;7.03;;;0.70;;
18997;SDS011;9632;51.018;4.284;2022-10-16T12:07:09;6.35;;;0.90;;
18997;SDS011;9632;51.018;4.284;2022-10-16T12:09:40;4.88;;;0.70;;
18997;SDS011;9632;51.018;4.284;2022-10-16T12:15:00;5.60;;;0.90;;
18997;SDS011;9632;51.018;4.284;2022-10-16T12:17:33;4.32;;;0.52;;
18997;SDS011;9632;51.018;4.284;2022-10-16T12:20:22;4.00;;;0.68;;
18997;SDS011;9632;51.018;4.284;2022-10-16T12:28:06;6.57;;;0.70;;
18997;SDS011;9632;51.018;4.284;2022-10-16T12:30:53;3.83;;;0.80;;
18997;SDS011;9632;51.018;4.284;2022-10-16T12:33:28;6.13;;;2.10;;
18997;SDS011;9632;51.018;4.284;2022-10-16T12:35:55;8.27;;;1.00;;
18997;SDS011;9632;51.018;4.284;2022-10-16T12:41:03;2.33;;;1.10;;
18997;SDS011;9632;51.018;4.284;2022-10-16T12:51:39;2.95;;;0.98;;
18997;SDS011;9632;51.018;4.284;2022-10-16T12:54:12;5.40;;;0.85;;
18997;SDS011;9632;51.018;4.284;2022-10-16T12:59:36;3.70;;;0.90;;
18997;SDS011;9632;51.018;4.284;2022-10-16T13:02:51;3.60;;;0.75;;
18997;SDS011;9632;51.018;4.284;2022-10-16T13:13:29;1.70;;;0.40;;
18997;SDS011;9632;51.018;4.284;2022-10-16T13:16:12;3.33;;;0.52;;
18997;SDS011;9632;51.018;4.284;2022-10-16T13:21:38;2.67;;;0.60;;
18997;SDS011;9632;51.018;4.284;2022-10-16T13:24:42;2.22;;;0.60;;
18997;SDS011;9632;51.018;4.284;2022-10-16T13:27:30;2.58;;;0.50;;
18997;SDS011;9632;51.018;4.284;2022-10-16T13:30:11;2.92;;;0.52;;
18997;SDS011;9632;51.018;4.284;2022-10-16T13:32:38;1.65;;;0.50;;
18997;SDS011;9632;51.018;4.284;2022-10-16T13:35:15;2.92;;;0.50;;
18997;SDS011;9632;51.018;4.284;2022-10-16T13:37:44;3.38;;;0.60;;
18997;SDS011;9632;51.018;4.284;2022-10-16T13:40:27;1.45;;;0.40;;
18997;SDS011;9632;51.018;4.284;2022-10-16T13:42:53;3.45;;;0.80;;
18997;SDS011;9632;51.018;4.284;2022-10-16T13:45:20;3.30;;;0.80;;
18997;SDS011;9632;51.018;4.284;2022-10-16T13:47:47;2.78;;;0.60;;
18997;SDS011;9632;51.018;4.284;2022-10-16T13:50:14;2.15;;;0.52;;
18997;SDS011;9632;51.018;4.284;2022-10-16T13:52:42;2.63;;;0.47;;
18997;SDS011;9632;51.018;4.284;2022-10-16T13:55:15;2.38;;;0.57;;
18997;SDS011;9632;51.018;4.284;2022-10-16T13:57:42;1.70;;;0.40;;
18997;SDS011;9632;51.018;4.284;2022-10-16T14:00:25;1.70;;;0.45;;
18997;SDS011;9632;51.018;4.284;2022-10-16T14:03:04;2.38;;;0.40;;
18997;SDS011;9632;51.018;4.284;2022-10-16T14:05:47;1.63;;;0.47;;
18997;SDS011;9632;51.018;4.284;2022-10-16T14:08:24;2.22;;;0.40;;
18997;SDS011;9632;51.018;4.284;2022-10-16T14:10:52;1.48;;;0.52;;
18997;SDS011;9632;51.018;4.284;2022-10-16T14:13:25;2.20;;;0.60;;
18997;SDS011;9632;51.018;4.284;2022-10-16T14:15:55;1.77;;;0.50;;
18997;SDS011;9632;51.018;4.284;2022-10-16T14:18:24;1.85;;;0.50;;
18997;SDS011;9632;51.018;4.284;2022-10-16T14:20:52;1.40;;;0.30;;
18997;SDS011;9632;51.018;4.284;2022-10-16T14:26:17;1.42;;;0.40;;
18997;SDS011;9632;51.018;4.284;2022-10-16T14:28:45;4.00;;;0.75;;
18997;SDS011;9632;51.018;4.284;2022-10-16T14:31:26;2.85;;;0.47;;
18997;SDS011;9632;51.018;4.284;2022-10-16T14:33:57;2.10;;;0.40;;
18997;SDS011;9632;51.018;4.284;2022-10-16T14:36:23;1.77;;;0.52;;
18997;SDS011;9632;51.018;4.284;2022-10-16T14:39:00;3.28;;;0.60;;
18997;SDS011;9632;51.018;4.284;2022-10-16T14:41:32;3.97;;;0.80;;
18997;SDS011;9632;51.018;4.284;2022-10-16T14:44:06;2.50;;;0.50;;
18997;SDS011;9632;51.018;4.284;2022-10-16T14:46:36;2.53;;;0.63;;
18997;SDS011;9632;51.018;4.284;2022-10-16T14:51:36;2.38;;;0.60;;
18997;SDS011;9632;51.018;4.284;2022-10-16T14:54:03;0.75;;;0.40;;
18997;SDS011;9632;51.018;4.284;2022-10-16T14:56:29;2.38;;;0.60;;
18997;SDS011;9632;51.018;4.284;2022-10-16T14:59:15;3.13;;;0.52;;
18997;SDS011;9632;51.018;4.284;2022-10-16T15:01:45;4.93;;;0.80;;
18997;SDS011;9632;51.018;4.284;2022-10-16T15:04:11;4.15;;;0.77;;
18997;SDS011;9632;51.018;4.284;2022-10-16T15:06:38;4.35;;;0.70;;
18997;SDS011;9632;51.018;4.284;2022-10-16T15:09:04;2.67;;;0.68;;
18997;SDS011;9632;51.018;4.284;2022-10-16T15:11:30;2.92;;;0.75;;
18997;SDS011;9632;51.018;4.284;2022-10-16T15:13:57;3.45;;;0.70;;
18997;SDS011;9632;51.018;4.284;2022-10-16T15:16:23;2.05;;;0.60;;
18997;SDS011;9632;51.018;4.284;2022-10-16T15:18:49;1.63;;;0.57;;
18997;SDS011;9632;51.018;4.284;2022-10-16T15:21:23;3.70;;;0.57;;
18997;SDS011;9632;51.018;4.284;2022-10-16T15:23:51;1.90;;;0.60;;
18997;SDS011;9632;51.018;4.284;2022-10-16T15:26:17;1.45;;;0.55;;
18997;SDS011;9632;51.018;4.284;2022-10-16T15:28:42;6.25;;;0.88;;
18997;SDS011;9632;51.018;4.284;2022-10-16T15:31:08;5.85;;;0.80;;
18997;SDS011;9632;51.018;4.284;2022-10-16T15:33:34;5.30;;;1.00;;
18997;SDS011;9632;51.018;4.284;2022-10-16T15:36:00;2.80;;;0.80;;
18997;SDS011;9632;51.018;4.284;2022-10-16T15:38:27;3.40;;;0.80;;
18997;SDS011;9632;51.018;4.284;2022-10-16T15:40:53;3.45;;;0.90;;
18997;SDS011;9632;51.018;4.284;2022-10-16T15:43:19;4.63;;;0.90;;
18997;SDS011;9632;51.018;4.284;2022-10-16T15:46:04;3.80;;;0.75;;
18997;SDS011;9632;51.018;4.284;2022-10-16T15:48:31;4.20;;;1.02;;
18997;SDS011;9632;51.018;4.284;2022-10-16T15:50:57;5.47;;;1.25;;
18997;SDS011;9632;51.018;4.284;2022-10-16T15:53:24;4.70;;;1.05;;
18997;SDS011;9632;51.018;4.284;2022-10-16T15:55:50;3.50;;;1.02;;
18997;SDS011;9632;51.018;4.284;2022-10-16T15:58:15;3.63;;;0.90;;
18997;SDS011;9632;51.018;4.284;2022-10-16T16:00:41;5.78;;;1.10;;
18997;SDS011;9632;51.018;4.284;2022-10-16T16:03:07;3.47;;;1.20;;
18997;SDS011;9632;51.018;4.284;2022-10-16T16:05:33;4.65;;;1.10;;
18997;SDS011;9632;51.018;4.284;2022-10-16T16:08:02;4.13;;;0.80;;
18997;SDS011;9632;51.018;4.284;2022-10-16T16:10:27;6.18;;;1.25;;
18997;SDS011;9632;51.018;4.284;2022-10-16T16:12:53;4.85;;;0.80;;
18997;SDS011;9632;51.018;4.284;2022-10-16T16:15:20;4.90;;;0.90;;
18997;SDS011;9632;51.018;4.284;2022-10-16T16:17:46;5.13;;;0.93;;
18997;SDS011;9632;51.018;4.284;2022-10-16T16:20:12;3.13;;;0.80;;
18997;SDS011;9632;51.018;4.284;2022-10-16T16:22:38;6.57;;;1.00;;
18997;SDS011;9632;51.018;4.284;2022-10-16T16:25:04;5.53;;;1.15;;
18997;SDS011;9632;51.018;4.284;2022-10-16T16:27:30;5.55;;;0.90;;
18997;SDS011;9632;51.018;4.284;2022-10-16T16:29:58;3.00;;;1.05;;
18997;SDS011;9632;51.018;4.284;2022-10-16T16:32:25;1.77;;;0.80;;
18997;SDS011;9632;51.018;4.284;2022-10-16T16:34:50;3.15;;;0.80;;
18997;SDS011;9632;51.018;4.284;2022-10-16T16:37:16;2.15;;;0.80;;
18997;SDS011;9632;51.018;4.284;2022-10-16T16:39:42;2.85;;;0.70;;
18997;SDS011;9632;51.018;4.284;2022-10-16T16:42:07;3.80;;;1.08;;
18997;SDS011;9632;51.018;4.284;2022-10-16T16:44:35;1.63;;;0.70;;
18997;SDS011;9632;51.018;4.284;2022-10-16T16:47:01;2.78;;;0.88;;
18997;SDS011;9632;51.018;4.284;2022-10-16T16:49:27;4.53;;;1.10;;
18997;SDS011;9632;51.018;4.284;2022-10-16T16:51:53;2.67;;;1.30;;
18997;SDS011;9632;51.018;4.284;2022-10-16T16:54:19;3.92;;;1.13;;
18997;SDS011;9632;51.018;4.284;2022-10-16T16:56:45;4.47;;;1.38;;
18997;SDS011;9632;51.018;4.284;2022-10-16T16:59:14;2.47;;;1.00;;
18997;SDS011;9632;51.018;4.284;2022-10-16T17:01:43;2.25;;;1.20;;
18997;SDS011;9632;51.018;4.284;2022-10-16T17:04:09;3.72;;;1.10;;
18997;SDS011;9632;51.018;4.284;2022-10-16T17:06:35;7.07;;;2.00;;